Time;durP1;ratioP1;P1;durP2;ratioP2;P2;SDS_P1;SDS_P2;PMS_P1;PMS_P2;Temp;Humidity;BMP_temperature;BMP_pressure;BME280_temperature;BME280_humidity;BME280_pressure;Samples;Min_cycle;Max_cycle;Signal;HPM_P1;HPM_P2
2023/06/07 00:00:25;;;;;;;;;8.00;7.33;;;;;20.18;69.39;99879.88;5048515;28;45509;-76
2023/06/07 00:02:51;;;;;;;;;7.67;6.00;;;;;20.11;69.52;99875.56;5051380;28;45227;-76
2023/06/07 00:05:21;;;;;;;;;7.00;6.67;;;;;20.03;69.37;99859.81;5041280;28;46266;-76
2023/06/07 00:07:47;;;;;;;;;8.67;7.67;;;;;20.04;69.88;99878.34;5052403;28;45450;-76
2023/06/07 00:10:13;;;;;;;;;9.00;8.33;;;;;20.08;69.26;99867.69;5046808;28;45619;-77
2023/06/07 00:12:38;;;;;;;;;4.67;4.00;;;;;20.14;69.05;99872.88;5044431;28;45500;-76
2023/06/07 00:15:05;;;;;;;;;6.33;5.67;;;;;20.17;68.80;99868.34;5033544;28;47722;-76
2023/06/07 00:17:31;;;;;;;;;8.00;6.00;;;;;20.16;69.16;99868.41;5037850;28;45550;-76
2023/06/07 00:19:56;;;;;;;;;5.00;5.00;;;;;20.10;68.62;99863.25;5039404;28;45755;-77
2023/06/07 00:22:22;;;;;;;;;6.33;6.33;;;;;20.01;69.51;99851.03;5044322;28;45366;-77
2023/06/07 00:24:51;;;;;;;;;6.00;5.33;;;;;19.98;69.85;99864.34;5037657;28;46102;-77
2023/06/07 00:27:17;;;;;;;;;7.33;7.00;;;;;19.98;69.46;99869.66;5042520;28;45398;-77
2023/06/07 00:29:42;;;;;;;;;6.00;4.00;;;;;19.97;68.93;99858.16;5046156;28;45549;-76
2023/06/07 00:32:08;;;;;;;;;6.00;6.00;;;;;20.03;68.81;99867.78;5036957;28;45591;-76
2023/06/07 00:34:34;;;;;;;;;5.00;5.00;;;;;19.99;69.20;99864.28;5036754;28;45554;-76
2023/06/07 00:36:59;;;;;;;;;7.00;6.00;;;;;19.92;69.37;99868.00;5041841;28;45373;-76
2023/06/07 00:39:25;;;;;;;;;6.00;5.00;;;;;19.87;68.98;99856.59;5048236;28;45417;-76
2023/06/07 00:41:52;;;;;;;;;6.00;5.33;;;;;19.77;69.56;99852.38;5038030;28;45398;-76
2023/06/07 00:44:18;;;;;;;;;7.00;7.00;;;;;19.85;69.97;99861.03;5053075;28;46218;-76
2023/06/07 00:46:44;;;;;;;;;7.00;6.00;;;;;19.67;69.91;99830.44;5038914;28;45592;-76
2023/06/07 00:49:16;;;;;;;;;9.00;7.67;;;;;19.53;70.82;99835.13;5038893;28;45352;-77
2023/06/07 00:51:42;;;;;;;;;6.33;5.33;;;;;19.50;70.96;99848.41;5035727;28;45419;-76
2023/06/07 00:54:08;;;;;;;;;7.00;7.00;;;;;19.53;71.26;99856.31;5037415;28;46191;-76
2023/06/07 00:56:35;;;;;;;;;10.33;8.33;;;;;19.56;71.36;99862.44;5053548;28;45480;-76
2023/06/07 00:59:02;;;;;;;;;6.00;6.00;;;;;19.48;71.20;99859.91;5047560;28;45445;-76
2023/06/07 01:01:27;;;;;;;;;8.00;6.67;;;;;19.35;71.22;99823.09;5050274;28;45393;-77
2023/06/07 01:03:56;;;;;;;;;5.00;5.00;;;;;19.48;70.04;99837.88;5040067;28;45993;-76
2023/06/07 01:06:22;;;;;;;;;4.00;4.00;;;;;19.40;70.87;99832.69;5056917;28;45461;-76
2023/06/07 01:08:51;;;;;;;;;8.00;7.67;;;;;19.39;70.69;99836.22;5038002;28;45404;-77
2023/06/07 01:11:20;;;;;;;;;6.33;6.00;;;;;19.48;70.94;99835.22;5038831;28;45457;-76
2023/06/07 01:13:47;;;;;;;;;7.00;7.00;;;;;19.32;70.99;99808.13;5054047;28;45512;-76
2023/06/07 01:16:13;;;;;;;;;7.00;7.00;;;;;19.44;71.31;99836.16;5036764;28;45369;-76
2023/06/07 01:18:41;;;;;;;;;5.67;5.00;;;;;19.49;70.83;99831.66;5045992;28;45262;-77
2023/06/07 01:21:12;;;;;;;;;8.67;6.00;;;;;19.39;70.43;99812.41;5056642;28;45508;-77
2023/06/07 01:23:38;;;;;;;;;7.00;7.00;;;;;19.47;70.51;99818.41;5046158;28;46277;-76
2023/06/07 01:26:04;;;;;;;;;6.00;6.00;;;;;19.61;70.11;99827.91;5018689;28;45429;-77
2023/06/07 01:28:33;;;;;;;;;7.33;7.33;;;;;19.63;69.88;99821.66;5019034;28;45295;-77
2023/06/07 01:31:01;;;;;;;;;7.00;6.00;;;;;19.68;69.63;99819.81;5035395;28;45436;-77
2023/06/07 01:33:28;;;;;;;;;7.00;7.00;;;;;19.77;69.52;99817.91;5038992;28;45521;-76
2023/06/07 01:35:56;;;;;;;;;7.00;6.00;;;;;19.81;69.48;99812.53;5048769;28;45493;-76
2023/06/07 01:38:25;;;;;;;;;5.33;5.33;;;;;19.76;69.56;99805.59;5038110;28;45495;-76
2023/06/07 01:40:52;;;;;;;;;5.33;5.33;;;;;19.85;69.47;99810.69;5040366;28;45403;-76
2023/06/07 01:43:18;;;;;;;;;6.00;5.33;;;;;19.82;69.21;99801.03;5055842;28;46904;-77
2023/06/07 01:45:45;;;;;;;;;7.00;6.00;;;;;19.89;69.27;99812.38;5051553;28;45472;-77
2023/06/07 01:48:11;;;;;;;;;6.00;6.00;;;;;19.80;69.24;99792.25;5052052;28;45492;-76
2023/06/07 01:50:37;;;;;;;;;6.00;6.00;;;;;19.70;69.17;99771.22;5047233;28;45463;-77
2023/06/07 01:53:02;;;;;;;;;5.67;5.67;;;;;19.88;69.28;99810.66;5039970;28;46304;-77
2023/06/07 01:55:29;;;;;;;;;5.00;5.00;;;;;19.62;69.09;99758.13;5047053;28;45514;-77
2023/06/07 01:57:57;;;;;;;;;6.33;6.00;;;;;19.89;69.16;99801.78;5042028;28;46460;-77
2023/06/07 02:00:48;;;;;;;;;5.33;5.33;;;;;19.88;69.13;99796.53;5042803;28;45337;-76
2023/06/07 02:03:32;;;;;;;;;7.00;7.00;;;;;19.74;69.97;99802.97;5039614;28;45678;-77
2023/06/07 02:06:03;;;;;;;;;7.67;7.33;;;;;19.57;69.60;99805.03;5038298;28;45917;-77
2023/06/07 02:08:36;;;;;;;;;9.33;9.33;;;;;19.42;70.29;99793.81;5055325;28;45526;-77
2023/06/07 02:11:02;;;;;;;;;7.00;6.00;;;;;19.34;70.79;99792.19;5041389;28;45446;-77
2023/06/07 02:13:34;;;;;;;;;7.00;6.00;;;;;19.30;70.58;99798.44;5048095;28;45279;-76
2023/06/07 02:16:04;;;;;;;;;7.00;6.67;;;;;19.25;70.79;99790.59;5039635;28;45402;-76
2023/06/07 02:18:31;;;;;;;;;6.67;6.00;;;;;19.27;70.87;99787.00;5043783;28;45441;-77
2023/06/07 02:20:56;;;;;;;;;7.00;6.00;;;;;19.27;70.21;99797.59;5051044;28;45453;-76
2023/06/07 02:23:22;;;;;;;;;5.33;5.33;;;;;19.20;70.77;99777.44;5046722;28;46745;-77
2023/06/07 02:25:48;;;;;;;;;6.00;5.33;;;;;19.25;70.96;99772.91;5054250;28;45554;-77
2023/06/07 02:28:13;;;;;;;;;5.00;5.00;;;;;19.37;70.25;99785.06;5058624;28;45559;-77
2023/06/07 02:30:39;;;;;;;;;7.00;6.33;;;;;19.34;70.90;99782.50;5040830;28;45535;-76
2023/06/07 02:33:06;;;;;;;;;7.00;6.00;;;;;19.30;70.78;99788.75;5058845;28;46086;-76
2023/06/07 02:35:32;;;;;;;;;8.00;7.00;;;;;19.27;70.68;99778.19;5059121;28;45345;-77
2023/06/07 02:37:57;;;;;;;;;7.00;6.00;;;;;19.17;70.69;99752.78;5059358;28;45496;-76
2023/06/07 02:40:23;;;;;;;;;6.00;6.00;;;;;19.36;70.13;99780.69;5058576;28;45299;-76
2023/06/07 02:42:48;;;;;;;;;5.00;5.00;;;;;19.40;69.92;99777.06;5059481;28;45353;-77
2023/06/07 02:45:15;;;;;;;;;6.33;6.00;;;;;19.34;69.70;99763.94;5039745;28;45353;-76
2023/06/07 02:47:41;;;;;;;;;6.00;5.00;;;;;19.38;69.90;99772.72;5058970;28;45509;-76
2023/06/07 02:50:07;;;;;;;;;7.00;5.33;;;;;19.34;69.66;99771.91;5049086;28;45862;-77
2023/06/07 02:52:34;;;;;;;;;7.67;6.67;;;;;19.22;69.68;99751.81;5038414;28;46080;-77
2023/06/07 02:55:00;;;;;;;;;5.67;5.33;;;;;19.34;69.96;99777.19;5039937;28;45415;-76
2023/06/07 02:57:26;;;;;;;;;7.00;6.00;;;;;19.31;70.11;99777.22;5038150;28;45368;-76
2023/06/07 02:59:56;;;;;;;;;6.67;5.67;;;;;19.21;70.43;99771.22;5045750;28;45429;-77
2023/06/07 03:02:21;;;;;;;;;6.33;6.00;;;;;19.18;70.09;99755.41;5046312;28;46196;-77
2023/06/07 03:04:48;;;;;;;;;5.00;5.00;;;;;19.17;70.16;99751.00;5053969;28;45414;-76
2023/06/07 03:07:13;;;;;;;;;5.00;5.00;;;;;19.31;69.29;99776.38;5042916;28;45409;-77
2023/06/07 03:09:39;;;;;;;;;9.33;6.00;;;;;19.05;69.79;99733.56;5039640;28;45344;-76
2023/06/07 03:12:06;;;;;;;;;6.00;6.00;;;;;19.14;69.96;99748.44;5058586;28;45358;-77
2023/06/07 03:14:32;;;;;;;;;6.33;5.33;;;;;19.25;70.11;99769.41;5058827;28;45949;-77
2023/06/07 03:16:57;;;;;;;;;4.67;4.67;;;;;19.20;69.96;99766.84;5044180;28;45331;-77
2023/06/07 03:19:23;;;;;;;;;5.00;4.00;;;;;19.16;70.23;99764.25;5049972;28;45437;-77
2023/06/07 03:21:53;;;;;;;;;6.00;6.00;;;;;19.13;70.03;99745.81;5058103;28;45484;-77
2023/06/07 03:24:19;;;;;;;;;6.00;5.00;;;;;19.12;69.80;99744.94;5049919;28;45520;-77
2023/06/07 03:26:44;;;;;;;;;6.33;6.00;;;;;19.18;70.37;99758.06;5045302;28;45452;-77
2023/06/07 03:29:10;;;;;;;;;6.00;5.00;;;;;19.21;70.26;99759.78;5047314;28;45585;-77
2023/06/07 03:31:36;;;;;;;;;5.33;4.67;;;;;19.00;70.95;99729.25;5052903;28;45590;-77
2023/06/07 03:34:02;;;;;;;;;5.00;5.00;;;;;19.07;70.71;99750.28;5039935;28;45482;-77
2023/06/07 03:36:29;;;;;;;;;5.00;5.00;;;;;19.15;70.50;99749.28;5051671;28;45687;-77
2023/06/07 03:38:58;;;;;;;;;7.00;7.00;;;;;19.12;70.37;99746.69;5038576;28;45840;-77
2023/06/07 03:41:25;;;;;;;;;4.00;4.00;;;;;19.15;70.56;99751.94;5058950;28;45291;-77
2023/06/07 03:43:51;;;;;;;;;7.00;6.67;;;;;19.16;70.58;99743.97;5063966;28;44764;-76
2023/06/07 03:46:17;;;;;;;;;6.33;6.33;;;;;18.60;71.01;99663.75;5071657;28;44721;-77
2023/06/07 03:48:43;;;;;;;;;6.33;6.33;;;;;18.99;71.00;99740.75;5066747;28;44896;-76
2023/06/07 03:51:09;;;;;;;;;6.00;6.00;;;;;18.96;71.22;99743.44;5066583;28;45394;-77
2023/06/07 03:53:35;;;;;;;;;7.00;7.00;;;;;18.83;71.55;99734.84;5049243;28;45315;-77
2023/06/07 03:56:01;;;;;;;;;7.00;6.67;;;;;18.85;71.96;99725.09;5040809;28;45482;-77
2023/06/07 03:58:26;;;;;;;;;6.00;6.00;;;;;18.86;70.88;99718.91;5037453;28;45505;-76
2023/06/07 04:00:52;;;;;;;;;6.33;6.33;;;;;18.94;70.57;99738.19;5038529;28;45411;-77
2023/06/07 04:03:24;;;;;;;;;5.00;5.00;;;;;18.91;70.54;99719.72;5053998;28;46066;-77
2023/06/07 04:05:50;;;;;;;;;5.67;5.67;;;;;18.89;70.38;99718.84;5044757;28;45545;-77
2023/06/07 04:08:16;;;;;;;;;4.67;4.67;;;;;19.07;69.87;99730.91;5046642;28;45435;-77
2023/06/07 04:10:41;;;;;;;;;5.33;5.00;;;;;19.06;69.96;99718.56;5037746;28;45447;-77
2023/06/07 04:13:07;;;;;;;;;5.00;5.00;;;;;19.14;69.18;99723.69;5037563;28;45460;-77
2023/06/07 04:15:32;;;;;;;;;6.67;5.33;;;;;18.78;69.07;99660.81;5026690;28;45339;-77
2023/06/07 04:17:58;;;;;;;;;6.00;6.00;;;;;19.21;68.39;99718.28;5046974;28;45378;-77
2023/06/07 04:20:23;;;;;;;;;6.00;6.00;;;;;19.40;67.55;99731.19;5038671;28;46427;-77
2023/06/07 04:22:52;;;;;;;;;7.00;6.33;;;;;19.49;67.60;99725.69;5055264;28;45359;-77
2023/06/07 04:25:24;;;;;;;;;5.00;4.67;;;;;19.53;67.78;99721.22;5050556;28;45411;-76
2023/06/07 04:27:51;;;;;;;;;6.33;5.67;;;;;19.58;67.13;99722.00;5027643;28;45506;-77
2023/06/07 04:30:18;;;;;;;;;4.67;4.67;;;;;19.68;66.60;99719.13;5037676;28;45387;-77
2023/06/07 04:32:44;;;;;;;;;5.67;5.33;;;;;19.79;65.96;99720.72;5040475;28;45382;-77
2023/06/07 04:35:14;;;;;;;;;5.00;4.67;;;;;19.89;64.74;99711.66;5048146;28;45485;-77
2023/06/07 04:37:45;;;;;;;;;7.00;6.00;;;;;19.94;64.88;99708.91;5049461;28;45552;-77
2023/06/07 04:40:10;;;;;;;;;4.33;4.33;;;;;19.99;65.00;99709.69;5040127;28;47163;-77
2023/06/07 04:42:38;;;;;;;;;7.33;6.00;;;;;20.11;64.18;99709.41;5052810;28;45568;-77
2023/06/07 04:45:05;;;;;;;;;5.67;5.67;;;;;20.09;63.18;99675.88;5045986;28;45538;-77
2023/06/07 04:47:32;;;;;;;;;6.00;6.00;;;;;20.43;62.66;99711.31;5039246;28;45541;-77
2023/06/07 04:49:59;;;;;;;;;11.33;11.33;;;;;20.53;63.12;99719.03;5055403;28;45588;-76
2023/06/07 04:52:25;;;;;;;;;6.67;5.67;;;;;20.57;63.41;99726.03;5037227;28;45394;-77
2023/06/07 04:54:51;;;;;;;;;5.33;5.33;;;;;20.56;63.05;99709.22;5037146;28;45458;-77
2023/06/07 04:57:18;;;;;;;;;8.00;7.00;;;;;20.72;62.84;99725.69;5049888;28;45501;-77
2023/06/07 04:59:45;;;;;;;;;6.33;5.00;;;;;20.76;62.61;99734.44;5038013;28;45628;-77
2023/06/07 05:02:11;;;;;;;;;6.00;6.00;;;;;20.69;62.46;99709.84;5037508;28;45429;-77
2023/06/07 05:04:38;;;;;;;;;3.67;3.00;;;;;20.78;62.03;99719.34;5037021;28;45488;-77
2023/06/07 05:07:05;;;;;;;;;7.00;7.00;;;;;20.70;62.64;99695.66;5037809;28;45411;-77
2023/06/07 05:09:31;;;;;;;;;4.00;4.00;;;;;20.91;61.33;99714.59;5038618;28;45472;-77
2023/06/07 05:11:56;;;;;;;;;4.00;4.00;;;;;20.92;61.58;99706.59;5056311;28;45418;-76
2023/06/07 05:14:22;;;;;;;;;7.33;6.00;;;;;20.99;62.00;99696.69;5037918;28;45496;-75
2023/06/07 05:16:48;;;;;;;;;4.33;4.33;;;;;21.15;61.47;99710.41;5054085;28;45478;-76
2023/06/07 05:19:16;;;;;;;;;5.00;5.00;;;;;21.28;60.48;99703.00;5054375;28;45838;-76
2023/06/07 05:21:41;;;;;;;;;6.00;5.67;;;;;21.42;58.91;99706.16;5036574;28;45563;-77
2023/06/07 05:24:07;;;;;;;;;7.00;7.00;;;;;21.63;59.79;99718.88;5054576;28;45368;-77
2023/06/07 05:26:33;;;;;;;;;4.67;4.67;;;;;21.72;60.13;99714.19;5055947;28;45353;-76
2023/06/07 05:28:58;;;;;;;;;5.00;5.00;;;;;21.78;59.70;99695.41;5051229;28;46096;-76
2023/06/07 05:31:26;;;;;;;;;7.00;6.67;;;;;21.80;60.15;99691.78;5052639;28;45512;-76
2023/06/07 05:33:52;;;;;;;;;6.00;6.00;;;;;21.97;59.34;99704.56;5037695;28;45838;-76
2023/06/07 05:36:18;;;;;;;;;6.00;5.67;;;;;22.15;58.73;99716.44;5037563;28;45512;-76
2023/06/07 05:38:43;;;;;;;;;6.67;5.67;;;;;22.22;58.78;99694.06;5055546;28;46425;-76
2023/06/07 05:41:09;;;;;;;;;6.33;6.33;;;;;22.33;57.57;99703.53;5055189;28;45499;-77
2023/06/07 05:43:35;;;;;;;;;6.67;5.33;;;;;22.40;58.71;99699.72;5033807;28;45626;-76
2023/06/07 05:46:01;;;;;;;;;7.00;7.00;;;;;22.66;58.59;99722.84;5047247;28;45507;-76
2023/06/07 05:48:27;;;;;;;;;5.00;5.00;;;;;22.74;58.41;99693.28;5042139;28;46026;-76
2023/06/07 05:50:53;;;;;;;;;5.33;5.00;;;;;23.06;57.55;99702.00;5050356;28;45416;-77
2023/06/07 05:53:18;;;;;;;;;6.33;6.33;;;;;23.36;56.22;99714.25;5055979;28;45512;-76
2023/06/07 05:55:45;;;;;;;;;4.00;4.00;;;;;23.28;56.77;99668.38;5037497;28;45590;-76
2023/06/07 05:58:11;;;;;;;;;6.33;6.00;;;;;23.69;56.49;99699.72;5055395;28;45927;-77
2023/06/07 06:00:37;;;;;;;;;6.00;5.33;;;;;24.14;55.96;99714.94;5038397;28;45437;-76
2023/06/07 06:03:04;;;;;;;;;7.67;7.00;;;;;24.58;54.63;99721.19;5050960;28;46592;-77
2023/06/07 06:05:29;;;;;;;;;7.00;6.00;;;;;25.01;54.60;99715.88;5046866;28;45525;-77
2023/06/07 06:07:56;;;;;;;;;6.67;6.00;;;;;25.39;52.67;99700.00;5042795;28;45480;-76
2023/06/07 06:10:23;;;;;;;;;5.67;5.00;;;;;25.93;52.07;99708.25;5054141;28;45429;-78
2023/06/07 06:12:49;;;;;;;;;5.00;5.00;;;;;26.47;50.83;99705.69;5053355;28;45704;-75
2023/06/07 06:15:14;;;;;;;;;5.67;5.67;;;;;26.98;50.19;99720.13;5049539;28;45545;-75
2023/06/07 06:17:40;;;;;;;;;7.00;7.00;;;;;27.27;49.07;99701.69;5054390;28;46083;-76
2023/06/07 06:20:07;;;;;;;;;8.33;6.33;;;;;27.63;49.78;99712.25;5054037;28;45426;-76
2023/06/07 06:22:33;;;;;;;;;7.67;7.67;;;;;28.05;49.37;99716.25;5036894;28;45566;-77
2023/06/07 06:24:59;;;;;;;;;7.33;7.33;;;;;28.53;48.42;99698.34;5044987;28;45858;-77
2023/06/07 06:27:24;;;;;;;;;10.00;9.67;;;;;29.19;46.35;99716.91;5049110;28;46090;-76
2023/06/07 06:29:50;;;;;;;;;7.00;7.00;;;;;29.49;46.67;99696.22;5054873;28;45377;-76
2023/06/07 06:32:16;;;;;;;;;6.00;5.33;;;;;30.02;45.45;99715.34;5038877;28;45425;-76
2023/06/07 06:34:41;;;;;;;;;6.00;6.00;;;;;30.41;44.26;99718.28;5042699;28;45534;-76
2023/06/07 06:37:07;;;;;;;;;7.00;7.00;;;;;30.65;43.63;99722.03;5037645;28;48043;-76
2023/06/07 06:39:32;;;;;;;;;8.00;7.33;;;;;30.81;44.21;99729.09;5054638;28;45406;-76
2023/06/07 06:41:58;;;;;;;;;6.00;6.00;;;;;30.80;43.53;99713.88;5058992;28;45396;-77
2023/06/07 06:44:23;;;;;;;;;8.33;7.00;;;;;30.93;44.34;99731.00;5051607;28;45477;-77
2023/06/07 06:46:49;;;;;;;;;7.33;7.33;;;;;31.04;44.76;99728.44;5021158;28;46905;-77
2023/06/07 06:49:17;;;;;;;;;7.00;7.00;;;;;31.68;44.20;99727.66;5048654;28;45553;-77
2023/06/07 06:51:43;;;;;;;;;7.33;6.00;;;;;32.35;42.12;99704.84;5021767;28;45382;-77
2023/06/07 06:54:08;;;;;;;;;5.33;4.67;;;;;32.95;40.78;99724.69;5037983;28;45416;-78
2023/06/07 06:56:34;;;;;;;;;5.00;4.67;;;;;33.03;40.08;99708.78;5049991;28;45423;-78
2023/06/07 06:59:00;;;;;;;;;5.67;5.67;;;;;33.56;39.46;99725.38;5043011;28;45296;-78
2023/06/07 07:01:42;;;;;;;;;7.00;6.00;;;;;33.29;40.31;99714.88;5039900;28;45618;-77
2023/06/07 07:04:07;;;;;;;;;5.67;5.67;;;;;33.38;39.04;99722.25;5039193;28;45521;-78
2023/06/07 07:06:33;;;;;;;;;4.00;4.00;;;;;33.74;38.85;99717.66;5046798;28;47053;-78
2023/06/07 07:08:58;;;;;;;;;6.00;6.00;;;;;33.81;39.70;99713.47;5039672;28;45756;-75
2023/06/07 07:11:25;;;;;;;;;7.00;7.00;;;;;34.02;39.24;99726.28;5041537;28;45484;-74
2023/06/07 07:13:50;;;;;;;;;8.00;6.33;;;;;34.07;38.35;99713.22;5051365;28;45385;-74
2023/06/07 07:16:17;;;;;;;;;4.67;4.33;;;;;34.31;38.49;99714.94;5051858;28;45676;-74
2023/06/07 07:18:42;;;;;;;;;5.00;4.33;;;;;34.67;38.38;99728.16;5055756;28;45443;-75
2023/06/07 07:21:08;;;;;;;;;8.33;6.67;;;;;34.71;38.21;99731.47;5055587;28;45446;-75
2023/06/07 07:23:33;;;;;;;;;6.00;5.33;;;;;34.67;37.62;99725.44;5033961;28;45564;-75
2023/06/07 07:25:59;;;;;;;;;5.33;4.67;;;;;34.32;38.45;99720.25;5052910;28;45592;-75
2023/06/07 07:28:24;;;;;;;;;5.00;5.00;;;;;34.12;39.01;99735.38;5049867;28;45446;-75
2023/06/07 07:30:50;;;;;;;;;6.00;4.33;;;;;34.21;39.79;99725.69;5050748;28;45396;-76
2023/06/07 07:33:15;;;;;;;;;4.33;4.33;;;;;34.39;39.08;99721.44;5037256;28;45446;-75
2023/06/07 07:35:41;;;;;;;;;4.33;4.33;;;;;34.55;38.93;99718.31;5049210;28;45524;-75
2023/06/07 07:38:06;;;;;;;;;6.00;6.00;;;;;34.68;38.75;99718.19;5040329;28;45574;-75
2023/06/07 07:40:32;;;;;;;;;3.67;3.67;;;;;34.90;38.93;99721.78;5058328;28;45618;-77
2023/06/07 07:42:58;;;;;;;;;5.00;5.00;;;;;34.92;38.08;99719.78;5040794;28;45419;-75
2023/06/07 07:45:23;;;;;;;;;6.33;6.33;;;;;34.77;38.62;99711.97;5044220;28;45515;-77
2023/06/07 07:47:50;;;;;;;;;7.00;5.67;;;;;34.99;38.15;99711.00;5049119;28;45535;-76
2023/06/07 07:50:16;;;;;;;;;7.00;6.67;;;;;35.38;36.44;99733.03;5046530;28;45514;-77
2023/06/07 07:52:42;;;;;;;;;6.33;6.00;;;;;35.62;34.52;99724.59;5042661;28;45418;-80
2023/06/07 07:55:07;;;;;;;;;6.33;5.33;;;;;35.74;34.21;99717.25;5039702;28;45573;-78
2023/06/07 07:57:33;;;;;;;;;6.00;6.00;;;;;36.03;33.64;99724.63;5057705;28;45175;-76
2023/06/07 07:59:58;;;;;;;;;5.33;5.00;;;;;36.03;35.33;99727.34;5046343;28;45161;-76
2023/06/07 08:02:24;;;;;;;;;10.00;10.00;;;;;36.00;35.07;99730.38;5039055;28;45161;-82
2023/06/07 08:04:49;;;;;;;;;6.00;4.67;;;;;36.12;34.55;99725.69;5045122;28;45208;-81
2023/06/07 08:07:15;;;;;;;;;6.00;5.33;;;;;35.92;33.76;99731.06;5059659;28;45322;-81
2023/06/07 08:09:41;;;;;;;;;5.67;4.00;;;;;35.64;33.18;99727.19;5045075;28;45546;-75
2023/06/07 08:12:08;;;;;;;;;4.00;4.00;;;;;35.47;33.58;99720.50;5043683;28;45255;-82
2023/06/07 08:14:33;;;;;;;;;3.67;3.67;;;;;35.55;34.56;99720.69;5060380;28;46066;-74
2023/06/07 08:16:59;;;;;;;;;5.00;5.00;;;;;35.64;33.95;99719.03;5042563;28;45330;-75
2023/06/07 08:19:26;;;;;;;;;3.67;3.33;;;;;35.70;33.32;99710.38;5041698;28;45662;-78
2023/06/07 08:21:52;;;;;;;;;4.67;4.00;;;;;35.78;32.83;99726.00;5039600;28;45503;-80
2023/06/07 08:24:17;;;;;;;;;4.00;4.00;;;;;35.95;33.17;99719.03;5053085;28;46199;-74
2023/06/07 08:26:47;;;;;;;;;6.00;5.00;;;;;35.95;32.22;99714.47;5037441;28;45516;-74
2023/06/07 08:29:12;;;;;;;;;3.67;3.67;;;;;35.96;32.45;99715.34;5040481;28;45339;-76
2023/06/07 08:31:41;;;;;;;;;4.67;4.00;;;;;35.86;32.42;99693.56;5038169;28;45546;-74
2023/06/07 08:34:08;;;;;;;;;5.00;3.67;;;;;36.02;31.88;99720.22;5038666;28;45505;-76
2023/06/07 08:36:33;;;;;;;;;4.33;4.33;;;;;36.01;31.99;99713.94;5039698;28;46968;-79
2023/06/07 08:38:59;;;;;;;;;2.00;1.67;;;;;36.10;31.46;99714.09;5046354;28;45499;-75
2023/06/07 08:41:26;;;;;;;;;5.33;4.33;;;;;35.95;31.23;99714.47;5052097;28;45403;-79
2023/06/07 08:43:52;;;;;;;;;4.00;4.00;;;;;36.09;31.15;99710.50;5057528;28;46135;-80
2023/06/07 08:46:19;;;;;;;;;4.00;4.00;;;;;36.09;30.01;99709.63;5044781;28;45516;-74
2023/06/07 08:48:49;;;;;;;;;4.67;3.67;;;;;36.00;31.07;99716.78;5046385;28;45437;-77
2023/06/07 08:51:17;;;;;;;;;13.33;13.33;;;;;36.30;30.75;99715.03;5051445;28;45473;-80
2023/06/07 08:53:48;;;;;;;;;6.33;6.33;;;;;36.46;30.82;99718.06;5035569;28;46188;-76
2023/06/07 08:56:15;;;;;;;;;9.33;8.33;;;;;36.34;31.08;99719.19;5035395;28;45552;-74
2023/06/07 08:58:41;;;;;;;;;4.67;4.67;;;;;36.12;31.86;99706.66;5055084;28;45345;-74
2023/06/07 09:01:08;;;;;;;;;14.33;13.00;;;;;36.39;30.99;99715.06;5042165;28;45571;-77
2023/06/07 09:03:33;;;;;;;;;7.00;7.00;;;;;36.33;30.62;99709.28;5038655;28;45479;-76
2023/06/07 09:05:59;;;;;;;;;4.00;4.00;;;;;36.17;31.72;99701.69;5041971;28;45518;-74
2023/06/07 09:08:26;;;;;;;;;6.00;6.00;;;;;36.50;30.14;99715.94;5037153;28;45413;-75
2023/06/07 09:10:51;;;;;;;;;6.00;6.00;;;;;36.42;30.71;99711.19;5019421;28;45430;-76
2023/06/07 09:13:21;;;;;;;;;6.67;6.67;;;;;36.37;29.75;99702.56;5037488;28;46354;-80
2023/06/07 09:15:49;;;;;;;;;6.33;6.33;;;;;36.42;30.02;99711.19;5036252;28;45633;-80
2023/06/07 09:18:15;;;;;;;;;5.00;5.00;;;;;36.37;30.32;99702.56;5052884;28;45314;-81
2023/06/07 09:20:41;;;;;;;;;7.00;6.33;;;;;36.31;28.91;99705.84;5042649;28;45526;-77
2023/06/07 09:23:09;;;;;;;;;5.00;5.00;;;;;36.34;29.73;99713.75;5055079;28;45489;-77
2023/06/07 09:25:37;;;;;;;;;4.67;4.67;;;;;36.30;29.52;99715.03;5042243;28;45367;-74
2023/06/07 09:28:08;;;;;;;;;5.00;5.00;;;;;36.29;29.44;99719.63;5038946;28;45312;-75
2023/06/07 09:30:33;;;;;;;;;5.33;4.67;;;;;36.04;29.46;99707.34;5056850;28;45506;-76
2023/06/07 09:32:59;;;;;;;;;4.00;4.00;;;;;36.13;29.40;99713.81;5041308;28;46457;-80
2023/06/07 09:35:25;;;;;;;;;4.67;4.67;;;;;36.14;29.17;99718.25;5038519;28;45343;-79
2023/06/07 09:37:52;;;;;;;;;4.00;4.00;;;;;36.06;28.46;99718.09;5050345;28;45451;-75
2023/06/07 09:40:18;;;;;;;;;6.33;5.00;;;;;35.78;29.38;99698.81;5037865;28;45271;-77
2023/06/07 09:42:54;;;;;;;;;5.00;4.33;;;;;35.63;30.59;99720.00;5043175;28;46071;-77
2023/06/07 09:45:20;;;;;;;;;6.00;5.00;;;;;35.48;29.96;99708.66;5042196;28;45444;-77
2023/06/07 09:47:46;;;;;;;;;5.00;4.00;;;;;35.53;30.29;99700.09;5056137;28;45305;-73
2023/06/07 09:50:13;;;;;;;;;4.33;4.00;;;;;35.53;30.75;99713.66;5040567;28;45535;-76
2023/06/07 09:52:39;;;;;;;;;5.67;5.67;;;;;35.43;29.66;99710.91;5026082;28;45532;-80
2023/06/07 09:55:07;;;;;;;;;5.00;4.33;;;;;35.37;30.81;99722.28;5034399;28;45694;-75
2023/06/07 09:57:35;;;;;;;;;4.67;4.00;;;;;35.30;31.20;99713.84;5036341;28;45315;-76
2023/06/07 10:00:16;;;;;;;;;5.00;5.00;;;;;35.24;31.74;99712.50;5039629;28;45470;-77
2023/06/07 10:02:43;;;;;;;;;4.00;4.00;;;;;35.11;32.10;99708.25;5039258;28;45596;-80
2023/06/07 10:05:09;;;;;;;;;5.00;5.00;;;;;34.96;32.76;99716.72;5057146;28;45487;-76
2023/06/07 10:07:38;;;;;;;;;5.33;5.00;;;;;35.19;30.81;99720.19;5023556;28;45741;-76
2023/06/07 10:10:07;;;;;;;;;5.33;4.00;;;;;35.35;31.42;99722.44;5039914;28;45524;-80
2023/06/07 10:12:38;;;;;;;;;5.00;4.67;;;;;35.36;30.43;99724.16;5049556;28;46090;-80
2023/06/07 10:15:08;;;;;;;;;6.00;6.00;;;;;35.15;30.98;99705.13;5025688;28;45458;-75
2023/06/07 10:17:41;;;;;;;;;6.00;6.00;;;;;35.33;30.79;99718.97;5055195;28;45464;-75
2023/06/07 10:20:11;;;;;;;;;4.33;4.33;;;;;35.43;30.43;99721.75;5029903;28;45534;-78
2023/06/07 10:22:43;;;;;;;;;15.00;15.00;;;;;35.38;30.98;99716.75;5045698;28;45434;-78
2023/06/07 10:25:14;;;;;;;;;7.33;6.00;;;;;35.58;30.57;99725.84;5054754;28;45621;-75
2023/06/07 10:27:42;;;;;;;;;5.00;5.00;;;;;35.78;29.60;99728.72;5045101;28;45374;-74
2023/06/07 10:30:14;;;;;;;;;4.00;4.00;;;;;35.97;30.03;99717.03;5048656;28;45389;-75
2023/06/07 10:32:42;;;;;;;;;4.00;4.00;;;;;36.15;29.40;99725.41;5054436;28;46159;-76
2023/06/07 10:35:11;;;;;;;;;4.33;4.00;;;;;36.13;29.76;99722.84;5042337;28;45483;-77
2023/06/07 10:37:37;;;;;;;;;5.00;4.67;;;;;36.21;29.54;99717.59;5052362;28;45479;-78
2023/06/07 10:40:09;;;;;;;;;5.00;5.00;;;;;36.32;29.79;99723.91;5039459;28;45726;-75
2023/06/07 10:42:43;;;;;;;;;8.00;7.00;;;;;36.53;28.78;99719.22;5054488;28;45544;-75
2023/06/07 10:45:18;;;;;;;;;5.00;4.33;;;;;36.66;29.02;99715.41;5048466;28;45580;-81
2023/06/07 10:47:45;;;;;;;;;5.00;5.00;;;;;36.71;28.11;99715.81;5041309;28;45749;-74
2023/06/07 10:50:34;;;;;;;;;5.00;4.00;;;;;36.75;28.04;99701.78;5051129;28;45351;-75
2023/06/07 10:53:01;;;;;;;;;4.00;4.00;;;;;36.68;28.57;99703.38;5028390;28;46295;-76
2023/06/07 10:55:32;;;;;;;;;5.67;5.33;;;;;36.86;28.90;99719.84;5053153;28;45396;-79
2023/06/07 10:57:58;;;;;;;;;5.00;5.00;;;;;36.66;27.25;99723.56;5038995;28;45527;-79
2023/06/07 11:00:29;;;;;;;;;4.00;3.67;;;;;36.66;27.49;99716.25;5040621;28;45526;-77
2023/06/07 11:03:16;;;;;;;;;4.00;4.00;;;;;36.71;27.34;99716.69;5058091;28;46277;-77
2023/06/07 11:06:02;;;;;;;;;4.33;3.33;;;;;36.68;27.88;99716.13;5041437;28;45566;-76
2023/06/07 11:08:30;;;;;;;;;4.00;3.00;;;;;36.54;28.04;99704.59;5044519;28;45482;-75
2023/06/07 11:11:00;;;;;;;;;4.00;3.00;;;;;36.37;28.24;99708.91;5038732;28;45435;-76
2023/06/07 11:13:44;;;;;;;;;5.00;4.00;;;;;36.35;28.24;99719.06;5040321;28;47831;-76
2023/06/07 11:16:33;;;;;;;;;3.00;3.00;;;;;36.17;28.30;99675.38;5057715;28;45521;-77
2023/06/07 11:19:05;;;;;;;;;4.00;4.00;;;;;35.97;28.27;99711.59;5035000;28;45380;-75
2023/06/07 11:22:06;;;;;;;;;4.67;4.00;;;;;35.99;29.36;99717.75;5049783;28;45303;-76
2023/06/07 11:24:33;;;;;;;;;3.33;3.33;;;;;35.97;28.55;99692.56;5020383;28;45554;-75
2023/06/07 11:26:59;;;;;;;;;5.00;4.00;;;;;36.01;28.06;99707.59;5038410;28;45683;-80
2023/06/07 11:29:25;;;;;;;;;3.00;3.00;;;;;35.93;28.34;99711.00;5037474;28;45689;-74
2023/06/07 11:31:59;;;;;;;;;3.33;3.33;;;;;35.87;28.82;99706.13;5038071;28;45551;-75
2023/06/07 11:34:26;;;;;;;;;3.67;3.67;;;;;35.94;29.51;99714.63;5049678;28;46223;-79